N317CX KBLI-KEUG
Flight info
| Callsign | N317CX |
|---|---|
| Flight time | 0h 47m |
| Altitude | 39000 |
| Route | KLSHN2 KLSHN CVV CVO |
| Aircraft | C750/M-SBDE3FGHRWXY/S |
Departure
| Time | 2026-04-29 03:46 |
|---|---|
| Airport | Bellingham International Airport (KBLI) |
Arrival
| Time | 2026-04-29 04:34 |
|---|---|
| Airport | Eugene Airport (KEUG) |
| Time | Latitude | Longitude | Altitude | Speed | Heading |
|---|---|---|---|---|---|
| 2026-04-29 03:32 | 48.79368 | -122.53164 | 154 ft | 0 kts | 322° |
| 2026-04-29 03:39 | 48.79379 | -122.53176 | 154 ft | 4 kts | 322° |
| 2026-04-29 03:39 | 48.79398 | -122.53236 | 154 ft | 8 kts | 264° |
| 2026-04-29 03:40 | 48.79396 | -122.53328 | 154 ft | 10 kts | 310° |
| 2026-04-29 03:40 | 48.79467 | -122.53412 | 154 ft | 16 kts | 321° |
| 2026-04-29 03:40 | 48.79559 | -122.53506 | 154 ft | 15 kts | 342° |
| 2026-04-29 03:40 | 48.79655 | -122.53522 | 154 ft | 10 kts | 333° |
| 2026-04-29 03:41 | 48.79724 | -122.53588 | 155 ft | 13 kts | 349° |
| 2026-04-29 03:41 | 48.79830 | -122.53589 | 158 ft | 17 kts | 1° |
| 2026-04-29 03:41 | 48.79958 | -122.53590 | 160 ft | 20 kts | 358° |
| 2026-04-29 03:41 | 48.80086 | -122.53572 | 160 ft | 14 kts | 3° |
| 2026-04-29 03:42 | 48.80162 | -122.53589 | 160 ft | 9 kts | 324° |
| 2026-04-29 03:42 | 48.80177 | -122.53629 | 160 ft | 0 kts | 280° |
| 2026-04-29 03:44 | 48.80179 | -122.53659 | 160 ft | 6 kts | 270° |
| 2026-04-29 03:44 | 48.80171 | -122.53741 | 159 ft | 8 kts | 238° |
| 2026-04-29 03:45 | 48.80138 | -122.53758 | 158 ft | 0 kts | 179° |
| 2026-04-29 03:45 | 48.80124 | -122.53758 | 158 ft | 22 kts | 179° |
| 2026-04-29 03:46 | 48.79536 | -122.53757 | 155 ft | 137 kts | 180° |
| 2026-04-29 03:46 | 48.78546 | -122.53772 | 860 ft | 140 kts | 182° |
| 2026-04-29 03:46 | 48.77525 | -122.53872 | 1512 ft | 158 kts | 187° |
| 2026-04-29 03:46 | 48.76352 | -122.54261 | 2047 ft | 189 kts | 195° |
| 2026-04-29 03:47 | 48.74937 | -122.54891 | 2421 ft | 233 kts | 198° |
| 2026-04-29 03:47 | 48.73292 | -122.55637 | 3166 ft | 252 kts | 194° |
| 2026-04-29 03:47 | 48.71629 | -122.56197 | 4628 ft | 247 kts | 192° |
| 2026-04-29 03:47 | 48.69862 | -122.56748 | 5218 ft | 277 kts | 192° |
| 2026-04-29 03:48 | 48.68003 | -122.57337 | 6811 ft | 260 kts | 192° |
| 2026-04-29 03:48 | 48.66218 | -122.57909 | 7999 ft | 270 kts | 192° |
| 2026-04-29 03:48 | 48.64344 | -122.58562 | 8916 ft | 286 kts | 193° |
| 2026-04-29 03:48 | 48.62397 | -122.59262 | 10150 ft | 290 kts | 193° |
| 2026-04-29 03:49 | 48.60368 | -122.59976 | 10779 ft | 312 kts | 193° |
| 2026-04-29 03:49 | 48.58159 | -122.60744 | 11110 ft | 340 kts | 193° |
| 2026-04-29 03:49 | 48.55769 | -122.61576 | 11395 ft | 362 kts | 193° |
| 2026-04-29 03:49 | 48.53314 | -122.62436 | 12301 ft | 363 kts | 193° |
| 2026-04-29 03:50 | 48.50836 | -122.63302 | 13102 ft | 369 kts | 194° |
| 2026-04-29 03:50 | 48.48318 | -122.64178 | 13887 ft | 374 kts | 194° |
| 2026-04-29 03:50 | 48.45765 | -122.65066 | 14598 ft | 379 kts | 194° |
| 2026-04-29 03:50 | 48.43172 | -122.65967 | 15268 ft | 385 kts | 194° |
| 2026-04-29 03:51 | 48.40547 | -122.66880 | 15966 ft | 390 kts | 194° |
| 2026-04-29 03:51 | 48.37885 | -122.67803 | 16659 ft | 395 kts | 194° |
| 2026-04-29 03:51 | 48.35184 | -122.68738 | 17328 ft | 402 kts | 194° |
| 2026-04-29 03:51 | 48.32427 | -122.69694 | 17981 ft | 410 kts | 194° |
| 2026-04-29 03:52 | 48.29627 | -122.70662 | 18726 ft | 416 kts | 195° |
| 2026-04-29 03:52 | 48.26788 | -122.71642 | 19405 ft | 421 kts | 195° |
| 2026-04-29 03:52 | 48.23909 | -122.72553 | 20067 ft | 427 kts | 191° |
| 2026-04-29 03:52 | 48.20934 | -122.73040 | 20753 ft | 432 kts | 187° |
| 2026-04-29 03:53 | 48.17930 | -122.73483 | 21464 ft | 437 kts | 188° |
| 2026-04-29 03:53 | 48.14891 | -122.73983 | 22148 ft | 442 kts | 189° |
| 2026-04-29 03:53 | 48.11824 | -122.74509 | 22829 ft | 446 kts | 189° |
| 2026-04-29 03:53 | 48.08717 | -122.75014 | 23495 ft | 452 kts | 188° |
| 2026-04-29 03:54 | 48.05575 | -122.75506 | 24105 ft | 457 kts | 188° |
| 2026-04-29 03:54 | 48.02406 | -122.76015 | 24671 ft | 460 kts | 189° |
| 2026-04-29 03:54 | 47.99215 | -122.76540 | 25283 ft | 463 kts | 189° |
| 2026-04-29 03:54 | 47.95998 | -122.77063 | 25850 ft | 467 kts | 189° |
| 2026-04-29 03:55 | 47.92753 | -122.77580 | 26421 ft | 471 kts | 188° |
| 2026-04-29 03:55 | 47.89480 | -122.78103 | 26978 ft | 475 kts | 188° |
| 2026-04-29 03:55 | 47.86185 | -122.78636 | 27586 ft | 478 kts | 188° |
| 2026-04-29 03:55 | 47.82874 | -122.79169 | 28181 ft | 474 kts | 188° |
| 2026-04-29 03:56 | 47.79692 | -122.79670 | 28208 ft | 457 kts | 188° |
| 2026-04-29 03:56 | 47.76473 | -122.80190 | 28195 ft | 475 kts | 188° |
| 2026-04-29 03:56 | 47.73140 | -122.80732 | 28508 ft | 485 kts | 188° |
| 2026-04-29 03:56 | 47.69779 | -122.81263 | 29177 ft | 487 kts | 188° |
| 2026-04-29 03:57 | 47.66392 | -122.81796 | 29572 ft | 494 kts | 188° |
| 2026-04-29 03:57 | 47.62939 | -122.82350 | 29975 ft | 501 kts | 189° |
| 2026-04-29 03:57 | 47.59465 | -122.82907 | 30548 ft | 504 kts | 188° |
| 2026-04-29 03:57 | 47.57149 | -122.83273 | 30845 ft | 506 kts | 188° |
| 2026-04-29 03:58 | 47.53629 | -122.83828 | 31258 ft | 511 kts | 189° |
| 2026-04-29 03:58 | 47.50100 | -122.84386 | 31895 ft | 510 kts | 189° |
| 2026-04-29 03:58 | 47.46573 | -122.84945 | 32504 ft | 510 kts | 189° |
| 2026-04-29 03:58 | 47.43047 | -122.85503 | 33110 ft | 510 kts | 189° |
| 2026-04-29 03:59 | 47.39513 | -122.86062 | 33714 ft | 511 kts | 189° |
| 2026-04-29 03:59 | 47.35977 | -122.86618 | 34334 ft | 511 kts | 190° |
| 2026-04-29 03:59 | 47.32449 | -122.87172 | 34867 ft | 511 kts | 190° |
| 2026-04-29 03:59 | 47.28890 | -122.87735 | 35184 ft | 517 kts | 190° |
| 2026-04-29 04:00 | 47.25321 | -122.88294 | 35775 ft | 515 kts | 190° |
| 2026-04-29 04:00 | 47.21767 | -122.88899 | 36405 ft | 513 kts | 192° |
| 2026-04-29 04:00 | 47.18229 | -122.89542 | 37047 ft | 512 kts | 191° |
| 2026-04-29 04:00 | 47.14690 | -122.90080 | 37702 ft | 511 kts | 190° |
| 2026-04-29 04:01 | 47.11155 | -122.90567 | 38368 ft | 509 kts | 190° |
| 2026-04-29 04:01 | 47.07642 | -122.91112 | 39047 ft | 507 kts | 191° |
| 2026-04-29 04:01 | 47.04126 | -122.91701 | 39285 ft | 514 kts | 191° |
| 2026-04-29 04:01 | 47.00535 | -122.92274 | 39256 ft | 526 kts | 190° |
| 2026-04-29 04:02 | 46.96857 | -122.92817 | 39290 ft | 537 kts | 190° |
| 2026-04-29 04:02 | 46.93101 | -122.93382 | 39297 ft | 548 kts | 190° |
| 2026-04-29 04:02 | 46.85382 | -122.94603 | 39302 ft | 566 kts | 190° |
| 2026-04-29 04:03 | 46.77527 | -122.95786 | 39303 ft | 567 kts | 190° |
| 2026-04-29 04:03 | 46.69722 | -122.97002 | 39301 ft | 570 kts | 190° |
| 2026-04-29 04:04 | 46.61823 | -122.98200 | 39288 ft | 573 kts | 190° |
| 2026-04-29 04:04 | 46.53896 | -122.99414 | 39293 ft | 572 kts | 190° |
| 2026-04-29 04:05 | 46.45983 | -123.00616 | 39292 ft | 572 kts | 190° |
| 2026-04-29 04:05 | 46.38070 | -123.01817 | 39298 ft | 572 kts | 190° |
| 2026-04-29 04:06 | 46.30179 | -123.03006 | 38988 ft | 559 kts | 190° |
| 2026-04-29 04:06 | 46.26358 | -123.03574 | 38149 ft | 543 kts | 191° |
| 2026-04-29 04:06 | 46.22662 | -123.04131 | 37458 ft | 525 kts | 191° |
| 2026-04-29 04:07 | 46.19063 | -123.04682 | 36779 ft | 516 kts | 191° |
| 2026-04-29 04:07 | 46.15502 | -123.05225 | 36111 ft | 515 kts | 191° |
| 2026-04-29 04:07 | 46.11914 | -123.05766 | 35433 ft | 523 kts | 191° |
| 2026-04-29 04:07 | 46.08275 | -123.06308 | 34743 ft | 528 kts | 190° |
| 2026-04-29 04:08 | 46.04602 | -123.06855 | 34012 ft | 532 kts | 190° |
| 2026-04-29 04:08 | 46.00919 | -123.07406 | 33302 ft | 530 kts | 190° |
| 2026-04-29 04:08 | 45.97269 | -123.07949 | 32601 ft | 525 kts | 189° |
| 2026-04-29 04:08 | 45.93654 | -123.08489 | 31901 ft | 520 kts | 189° |
| 2026-04-29 04:09 | 45.90069 | -123.09023 | 31203 ft | 516 kts | 189° |
| 2026-04-29 04:09 | 45.86509 | -123.09554 | 30522 ft | 511 kts | 188° |
| 2026-04-29 04:09 | 45.83010 | -123.10071 | 29806 ft | 499 kts | 188° |
| 2026-04-29 04:09 | 45.79590 | -123.10576 | 29150 ft | 490 kts | 188° |
| 2026-04-29 04:10 | 45.76207 | -123.11080 | 28495 ft | 487 kts | 188° |
| 2026-04-29 04:10 | 45.72847 | -123.11580 | 27866 ft | 484 kts | 188° |
| 2026-04-29 04:10 | 45.69509 | -123.12072 | 27204 ft | 480 kts | 188° |
| 2026-04-29 04:10 | 45.66194 | -123.12560 | 26593 ft | 479 kts | 188° |
| 2026-04-29 04:11 | 45.62895 | -123.13047 | 25965 ft | 474 kts | 188° |
| 2026-04-29 04:11 | 45.59628 | -123.13528 | 25350 ft | 469 kts | 188° |
| 2026-04-29 04:11 | 45.56403 | -123.14003 | 24730 ft | 463 kts | 188° |
| 2026-04-29 04:11 | 45.53213 | -123.14472 | 24122 ft | 459 kts | 188° |
| 2026-04-29 04:12 | 45.50047 | -123.14937 | 23473 ft | 455 kts | 188° |
| 2026-04-29 04:12 | 45.46918 | -123.15395 | 22869 ft | 451 kts | 188° |
| 2026-04-29 04:12 | 45.43807 | -123.15852 | 22274 ft | 447 kts | 188° |
| 2026-04-29 04:12 | 45.40728 | -123.16303 | 21686 ft | 443 kts | 188° |
| 2026-04-29 04:13 | 45.37675 | -123.16749 | 21107 ft | 440 kts | 188° |
| 2026-04-29 04:13 | 45.34639 | -123.17191 | 20532 ft | 437 kts | 188° |
| 2026-04-29 04:13 | 45.31630 | -123.17630 | 19959 ft | 433 kts | 188° |
| 2026-04-29 04:13 | 45.28642 | -123.18065 | 19393 ft | 429 kts | 188° |
| 2026-04-29 04:14 | 45.25724 | -123.18490 | 18837 ft | 426 kts | 188° |
| 2026-04-29 04:14 | 45.22751 | -123.18922 | 18235 ft | 422 kts | 188° |
| 2026-04-29 04:14 | 45.19887 | -123.19338 | 17682 ft | 417 kts | 187° |
| 2026-04-29 04:14 | 45.17021 | -123.19753 | 17133 ft | 412 kts | 187° |
| 2026-04-29 04:15 | 45.14149 | -123.20170 | 16588 ft | 407 kts | 187° |
| 2026-04-29 04:15 | 45.11380 | -123.20571 | 16062 ft | 403 kts | 187° |
| 2026-04-29 04:15 | 45.08621 | -123.20969 | 15528 ft | 395 kts | 187° |
| 2026-04-29 04:15 | 45.05902 | -123.21362 | 15007 ft | 391 kts | 188° |
| 2026-04-29 04:16 | 45.03199 | -123.21754 | 14490 ft | 390 kts | 188° |
| 2026-04-29 04:16 | 45.00521 | -123.22140 | 13965 ft | 385 kts | 187° |
| 2026-04-29 04:16 | 44.97872 | -123.22520 | 13431 ft | 380 kts | 187° |
| 2026-04-29 04:16 | 44.95260 | -123.22897 | 12934 ft | 375 kts | 187° |
| 2026-04-29 04:17 | 44.92679 | -123.23269 | 12441 ft | 371 kts | 187° |
| 2026-04-29 04:17 | 44.90129 | -123.23634 | 11952 ft | 366 kts | 187° |
| 2026-04-29 04:17 | 44.87614 | -123.23996 | 11468 ft | 356 kts | 187° |
| 2026-04-29 04:17 | 44.85236 | -123.24333 | 11011 ft | 331 kts | 187° |
| 2026-04-29 04:18 | 44.83021 | -123.24649 | 10587 ft | 310 kts | 188° |
| 2026-04-29 04:18 | 44.80932 | -123.24951 | 10183 ft | 295 kts | 188° |
| 2026-04-29 04:18 | 44.78912 | -123.25242 | 9783 ft | 289 kts | 188° |
| 2026-04-29 04:18 | 44.76917 | -123.25529 | 9398 ft | 287 kts | 188° |
| 2026-04-29 04:19 | 44.74933 | -123.25813 | 9021 ft | 287 kts | 188° |
| 2026-04-29 04:19 | 44.72949 | -123.26096 | 8649 ft | 286 kts | 187° |
| 2026-04-29 04:19 | 44.70974 | -123.26378 | 8279 ft | 285 kts | 187° |
| 2026-04-29 04:19 | 44.69009 | -123.26658 | 7909 ft | 283 kts | 187° |
| 2026-04-29 04:20 | 44.67054 | -123.26936 | 7538 ft | 281 kts | 187° |
| 2026-04-29 04:20 | 44.65116 | -123.27212 | 7170 ft | 279 kts | 187° |
| 2026-04-29 04:20 | 44.63185 | -123.27488 | 6813 ft | 278 kts | 187° |
| 2026-04-29 04:20 | 44.61272 | -123.27760 | 6419 ft | 275 kts | 187° |
| 2026-04-29 04:21 | 44.59379 | -123.28030 | 6031 ft | 273 kts | 187° |
| 2026-04-29 04:21 | 44.57497 | -123.28297 | 5643 ft | 271 kts | 186° |
| 2026-04-29 04:21 | 44.55625 | -123.28563 | 5264 ft | 269 kts | 185° |
| 2026-04-29 04:21 | 44.53774 | -123.28825 | 4886 ft | 266 kts | 184° |
| 2026-04-29 04:22 | 44.51934 | -123.29085 | 4494 ft | 266 kts | 185° |
| 2026-04-29 04:22 | 44.50096 | -123.29345 | 4114 ft | 266 kts | 185° |
| 2026-04-29 04:22 | 44.48257 | -123.29555 | 3740 ft | 265 kts | 181° |
| 2026-04-29 04:22 | 44.46409 | -123.29574 | 3374 ft | 265 kts | 179° |
| 2026-04-29 04:23 | 44.44565 | -123.29542 | 3006 ft | 265 kts | 179° |
| 2026-04-29 04:23 | 44.42722 | -123.29492 | 2628 ft | 265 kts | 179° |
| 2026-04-29 04:23 | 44.40893 | -123.29422 | 2285 ft | 261 kts | 179° |
| 2026-04-29 04:23 | 44.39102 | -123.29334 | 2276 ft | 259 kts | 178° |
| 2026-04-29 04:24 | 44.37288 | -123.29278 | 2273 ft | 261 kts | 180° |
| 2026-04-29 04:24 | 44.35507 | -123.29594 | 2278 ft | 262 kts | 189° |
| 2026-04-29 04:24 | 44.33701 | -123.29968 | 2286 ft | 263 kts | 188° |
| 2026-04-29 04:24 | 44.31886 | -123.30329 | 2282 ft | 263 kts | 188° |
| 2026-04-29 04:25 | 44.30068 | -123.30696 | 2277 ft | 265 kts | 188° |
| 2026-04-29 04:25 | 44.28248 | -123.31063 | 2262 ft | 264 kts | 189° |
| 2026-04-29 04:25 | 44.26461 | -123.31660 | 2248 ft | 264 kts | 197° |
| 2026-04-29 04:25 | 44.24671 | -123.32214 | 2232 ft | 265 kts | 185° |
| 2026-04-29 04:26 | 44.22851 | -123.32230 | 2250 ft | 252 kts | 179° |
| 2026-04-29 04:26 | 44.21194 | -123.32165 | 2248 ft | 224 kts | 179° |
| 2026-04-29 04:26 | 44.19666 | -123.32099 | 2242 ft | 220 kts | 178° |
| 2026-04-29 04:26 | 44.18126 | -123.32032 | 2248 ft | 221 kts | 178° |
| 2026-04-29 04:27 | 44.16587 | -123.31966 | 2249 ft | 221 kts | 178° |
| 2026-04-29 04:27 | 44.15044 | -123.31902 | 2250 ft | 223 kts | 178° |
| 2026-04-29 04:27 | 44.13498 | -123.31840 | 2252 ft | 222 kts | 178° |
| 2026-04-29 04:27 | 44.11953 | -123.31778 | 2251 ft | 222 kts | 178° |
| 2026-04-29 04:28 | 44.10413 | -123.31715 | 2250 ft | 222 kts | 178° |
| 2026-04-29 04:28 | 44.08853 | -123.31649 | 2252 ft | 224 kts | 178° |
| 2026-04-29 04:28 | 44.07350 | -123.31587 | 2245 ft | 203 kts | 178° |
| 2026-04-29 04:28 | 44.06024 | -123.31529 | 2239 ft | 182 kts | 178° |
| 2026-04-29 04:29 | 44.04776 | -123.31468 | 2243 ft | 178 kts | 178° |
| 2026-04-29 04:29 | 44.03524 | -123.31403 | 2240 ft | 182 kts | 178° |
| 2026-04-29 04:29 | 44.02303 | -123.31050 | 2160 ft | 184 kts | 147° |
| 2026-04-29 04:29 | 44.01680 | -123.29622 | 2111 ft | 174 kts | 95° |
| 2026-04-29 04:30 | 44.01661 | -123.27958 | 2262 ft | 170 kts | 87° |
| 2026-04-29 04:30 | 44.01630 | -123.26287 | 2259 ft | 175 kts | 88° |
| 2026-04-29 04:30 | 44.02304 | -123.23242 | 1757 ft | 164 kts | 34° |
| 2026-04-29 04:31 | 44.03352 | -123.22668 | 1644 ft | 162 kts | 15° |
| 2026-04-29 04:31 | 44.04354 | -123.22379 | 1436 ft | 133 kts | 9° |
| 2026-04-29 04:31 | 44.05200 | -123.22171 | 1262 ft | 118 kts | 8° |
| 2026-04-29 04:31 | 44.06007 | -123.22018 | 1134 ft | 116 kts | 7° |
| 2026-04-29 04:32 | 44.06818 | -123.21908 | 976 ft | 117 kts | 2° |
| 2026-04-29 04:32 | 44.07625 | -123.21827 | 838 ft | 114 kts | 2° |
| 2026-04-29 04:32 | 44.08414 | -123.21816 | 759 ft | 111 kts | 360° |
| 2026-04-29 04:32 | 44.09200 | -123.21833 | 675 ft | 113 kts | 357° |
| 2026-04-29 04:33 | 44.09972 | -123.21856 | 603 ft | 113 kts | 358° |
| 2026-04-29 04:33 | 44.10761 | -123.21877 | 474 ft | 114 kts | 359° |
| 2026-04-29 04:33 | 44.11544 | -123.21887 | 365 ft | 109 kts | 358° |
| 2026-04-29 04:33 | 44.12200 | -123.21896 | 354 ft | 76 kts | 360° |
| 2026-04-29 04:34 | 44.12518 | -123.21899 | 355 ft | 27 kts | 358° |
| 2026-04-29 04:34 | 44.12695 | -123.21905 | 353 ft | 24 kts | 359° |
| 2026-04-29 04:34 | 44.12827 | -123.21881 | 356 ft | 13 kts | 55° |
| 2026-04-29 04:34 | 44.12831 | -123.21774 | 354 ft | 11 kts | 89° |
| 2026-04-29 04:35 | 44.12798 | -123.21714 | 354 ft | 7 kts | 173° |
| 2026-04-29 04:35 | 44.12747 | -123.21713 | 359 ft | 7 kts | 179° |
| 2026-04-29 04:35 | 44.12702 | -123.21713 | 358 ft | 6 kts | 180° |
| 2026-04-29 04:35 | 44.12663 | -123.21713 | 359 ft | 7 kts | 179° |
| 2026-04-29 04:36 | 44.12583 | -123.21710 | 356 ft | 16 kts | 180° |
| 2026-04-29 04:36 | 44.12436 | -123.21710 | 361 ft | 26 kts | 180° |
| 2026-04-29 04:36 | 44.12234 | -123.21705 | 359 ft | 29 kts | 179° |
| 2026-04-29 04:36 | 44.12025 | -123.21703 | 357 ft | 30 kts | 179° |
| 2026-04-29 04:37 | 44.11819 | -123.21699 | 354 ft | 29 kts | 179° |
| 2026-04-29 04:37 | 44.11620 | -123.21697 | 354 ft | 22 kts | 179° |
| 2026-04-29 04:37 | 44.11556 | -123.21675 | 360 ft | 6 kts | 123° |
| 2026-04-29 04:37 | 44.11552 | -123.21628 | 358 ft | 4 kts | 89° |
| 2026-04-29 04:38 | 44.11556 | -123.21609 | 361 ft | 1 kts | 35° |
| 2026-04-29 04:38 | 44.11573 | -123.21618 | 359 ft | 7 kts | 333° |
| 2026-04-29 04:38 | 44.11659 | -123.21633 | 354 ft | 17 kts | 358° |
| 2026-04-29 04:38 | 44.11758 | -123.21603 | 357 ft | 9 kts | 34° |
| 2026-04-29 04:39 | 44.11780 | -123.21554 | 355 ft | 3 kts | 103° |
| 2026-04-29 04:39 | 44.11772 | -123.21540 | 356 ft | 1 kts | 133° |
| 2026-04-29 04:39 | 44.11763 | -123.21528 | 359 ft | 4 kts | 133° |
| 2026-04-29 04:39 | 44.11749 | -123.21506 | 357 ft | 1 kts | 132° |
| 2026-04-29 04:40 | 44.11743 | -123.21496 | 358 ft | 2 kts | 131° |
| 2026-04-29 04:40 | 44.11741 | -123.21494 | 358 ft | 0 kts | 132° |